PWSweather.com
Personal Weather Stations
Station Observations
WD4JKH
Forsyth, GA 31029

Forsyth, GA 31029

Lat: 33.033225, Lon: -83.927995

Elevation: 709

Station Type: Davis Vantage VUE

High Low Average
Temperature 90.6°F32.6°C 66.6°F19.2°C 79.8°F26.6°C
Dew Point 73.1°F22.8°C 62.6°F17.0°C 68.2°F20.1°C
Winds 4.4 mph 7.1 kmh Calm Calm 1.0 mph SSW1.6 kmh SSW
Wind Gusts 11.0 mph17.7 kmh -- 4.0 mph6.4 kmh
Humidity 93% 49% 69%
Pressure 30.09 in1019.0 mb 29.96 in1014.6 mb -
Precipitation 0.00 in0.0 mm - -
Hour Temp Dew Point Humidity Winds Wind Gusts Pressure Precip Precip Rate Daily Precip Total
12:03 AM 74.2°F23.4°C 62.7°F17.1°C 67% 2.1 mph SSE3.4 kmh SSE 6.0 mph9.7 kmh 30.06 in1017.9 mb 0.00 in0.0 mm 0.00 in0.0 mm 0.00 in0.0 mm
12:08 AM 74.2°F23.4°C 62.7°F17.1°C 67% 1.7 mph SSE2.7 kmh SSE 8.0 mph12.9 kmh 30.05 in1017.6 mb 0.00 in0.0 mm 0.00 in0.0 mm 0.00 in0.0 mm
12:13 AM 74.1°F23.4°C 63.1°F17.3°C 68% 2.3 mph SSE3.7 kmh SSE 8.0 mph12.9 kmh 30.05 in1017.6 mb 0.00 in0.0 mm 0.00 in0.0 mm 0.00 in0.0 mm
12:18 AM 73.9°F23.3°C 62.9°F17.2°C 68% 1.5 mph SE2.4 kmh SE 8.0 mph12.9 kmh 30.05 in1017.6 mb 0.00 in0.0 mm 0.00 in0.0 mm 0.00 in0.0 mm
12:23 AM 73.7°F23.2°C 63.1°F17.3°C 69% 1.9 mph SSE3.1 kmh SSE 8.0 mph12.9 kmh 30.05 in1017.6 mb 0.00 in0.0 mm 0.00 in0.0 mm 0.00 in0.0 mm
12:28 AM 73.5°F23.1°C 62.9°F17.2°C 69% 1.9 mph SSE3.1 kmh SSE 6.0 mph9.7 kmh 30.05 in1017.6 mb 0.00 in0.0 mm 0.00 in0.0 mm 0.00 in0.0 mm
12:33 AM 73.3°F22.9°C 63.1°F17.3°C 70% 1.6 mph SSE2.6 kmh SSE 6.0 mph9.7 kmh 30.05 in1017.6 mb 0.00 in0.0 mm 0.00 in0.0 mm 0.00 in0.0 mm
12:38 AM 73.1°F22.8°C 62.9°F17.2°C 70% 2.2 mph SSE3.5 kmh SSE 6.0 mph9.7 kmh 30.05 in1017.6 mb 0.00 in0.0 mm 0.00 in0.0 mm 0.00 in0.0 mm
12:43 AM 73.0°F22.8°C 62.8°F17.1°C 70% 2.0 mph SE3.2 kmh SE 6.0 mph9.7 kmh 30.05 in1017.6 mb 0.00 in0.0 mm 0.00 in0.0 mm 0.00 in0.0 mm
12:48 AM 72.7°F22.6°C 62.9°F17.2°C 71% 1.0 mph S1.6 kmh S 6.0 mph9.7 kmh 30.05 in1017.6 mb 0.00 in0.0 mm 0.00 in0.0 mm 0.00 in0.0 mm
12:53 AM 72.5°F22.5°C 62.7°F17.1°C 71% 1.4 mph SSE2.3 kmh SSE 6.0 mph9.7 kmh 30.05 in1017.6 mb 0.00 in0.0 mm 0.00 in0.0 mm 0.00 in0.0 mm
12:58 AM 72.3°F22.4°C 62.9°F17.2°C 72% 1.1 mph SSE1.8 kmh SSE 6.0 mph9.7 kmh 30.05 in1017.6 mb 0.00 in0.0 mm 0.00 in0.0 mm 0.00 in0.0 mm
01:03 AM 72.0°F22.2°C 63.0°F17.2°C 73% 1.5 mph S2.4 kmh S 3.0 mph4.8 kmh 30.05 in1017.6 mb 0.00 in0.0 mm 0.00 in0.0 mm 0.00 in0.0 mm
01:08 AM 71.8°F22.1°C 62.7°F17.1°C 73% 1.1 mph SSE1.8 kmh SSE 3.0 mph4.8 kmh 30.05 in1017.6 mb 0.00 in0.0 mm 0.00 in0.0 mm 0.00 in0.0 mm
01:13 AM 71.7°F22.1°C 62.6°F17.0°C 73% Calm Calm 3.0 mph4.8 kmh 30.05 in1017.6 mb 0.00 in0.0 mm 0.00 in0.0 mm 0.00 in0.0 mm
01:18 AM 71.5°F21.9°C 62.8°F17.1°C 74% Calm Calm 3.0 mph4.8 kmh 30.05 in1017.6 mb 0.00 in0.0 mm 0.00 in0.0 mm 0.00 in0.0 mm
01:23 AM 71.3°F21.8°C 63.0°F17.2°C 75% 1.0 mph SE1.6 kmh SE 3.0 mph4.8 kmh 30.05 in1017.6 mb 0.00 in0.0 mm 0.00 in0.0 mm 0.00 in0.0 mm
01:28 AM 71.1°F21.7°C 62.8°F17.1°C 75% 1.2 mph SSE1.9 kmh SSE 3.0 mph4.8 kmh 30.05 in1017.6 mb 0.00 in0.0 mm 0.00 in0.0 mm 0.00 in0.0 mm
01:33 AM 71.0°F21.7°C 63.2°F17.3°C 76% 1.0 mph SE1.6 kmh SE 3.0 mph4.8 kmh 30.04 in1017.3 mb 0.00 in0.0 mm 0.00 in0.0 mm 0.00 in0.0 mm
01:38 AM 70.7°F21.5°C 62.9°F17.2°C 76% Calm Calm 3.0 mph4.8 kmh 30.04 in1017.3 mb 0.00 in0.0 mm 0.00 in0.0 mm 0.00 in0.0 mm
01:43 AM 70.5°F21.4°C 63.1°F17.3°C 77% 1.0 mph SE1.6 kmh SE 3.0 mph4.8 kmh 30.04 in1017.3 mb 0.00 in0.0 mm 0.00 in0.0 mm 0.00 in0.0 mm
01:48 AM 70.4°F21.3°C 63.0°F17.2°C 77% 1.5 mph SE2.4 kmh SE 3.0 mph4.8 kmh 30.04 in1017.3 mb 0.00 in0.0 mm 0.00 in0.0 mm 0.00 in0.0 mm
01:53 AM 70.3°F21.3°C 63.2°F17.3°C 78% 1.0 mph SE1.6 kmh SE 3.0 mph4.8 kmh 30.03 in1016.9 mb 0.00 in0.0 mm 0.00 in0.0 mm 0.00 in0.0 mm
01:58 AM 70.2°F21.2°C 63.1°F17.3°C 78% 1.9 mph S3.1 kmh S 5.0 mph8.0 kmh 30.03 in1016.9 mb 0.00 in0.0 mm 0.00 in0.0 mm 0.00 in0.0 mm
02:03 AM 70.2°F21.2°C 63.5°F17.5°C 79% 1.5 mph S2.4 kmh S 5.0 mph8.0 kmh 30.03 in1016.9 mb 0.00 in0.0 mm 0.00 in0.0 mm 0.00 in0.0 mm
02:08 AM 70.2°F21.2°C 63.5°F17.5°C 79% 1.8 mph S2.9 kmh S 5.0 mph8.0 kmh 30.03 in1016.9 mb 0.00 in0.0 mm 0.00 in0.0 mm 0.00 in0.0 mm
02:13 AM 70.1°F21.2°C 63.7°F17.6°C 80% 1.7 mph S2.7 kmh S 5.0 mph8.0 kmh 30.03 in1016.9 mb 0.00 in0.0 mm 0.00 in0.0 mm 0.00 in0.0 mm
02:18 AM 70.0°F21.1°C 63.6°F17.6°C 80% 1.6 mph SW2.6 kmh SW 5.0 mph8.0 kmh 30.03 in1016.9 mb 0.00 in0.0 mm 0.00 in0.0 mm 0.00 in0.0 mm
02:23 AM 69.9°F21.1°C 63.9°F17.7°C 81% 1.1 mph SE1.8 kmh SE 5.0 mph8.0 kmh 30.03 in1016.9 mb 0.00 in0.0 mm 0.00 in0.0 mm 0.00 in0.0 mm
02:28 AM 69.7°F20.9°C 63.7°F17.6°C 81% 1.2 mph S1.9 kmh S 4.0 mph6.4 kmh 30.03 in1016.9 mb 0.00 in0.0 mm 0.00 in0.0 mm 0.00 in0.0 mm
02:33 AM 69.6°F20.9°C 63.9°F17.7°C 82% 1.4 mph SW2.3 kmh SW 3.0 mph4.8 kmh 30.03 in1016.9 mb 0.00 in0.0 mm 0.00 in0.0 mm 0.00 in0.0 mm
02:38 AM 69.4°F20.8°C 63.7°F17.6°C 82% 2.0 mph S3.2 kmh S 3.0 mph4.8 kmh 30.03 in1016.9 mb 0.00 in0.0 mm 0.00 in0.0 mm 0.00 in0.0 mm
02:43 AM 69.4°F20.8°C 63.7°F17.6°C 82% 1.1 mph S1.8 kmh S 3.0 mph4.8 kmh 30.03 in1016.9 mb 0.00 in0.0 mm 0.00 in0.0 mm 0.00 in0.0 mm
02:48 AM 69.2°F20.7°C 63.9°F17.7°C 83% 1.4 mph SSW2.3 kmh SSW 3.0 mph4.8 kmh 30.03 in1016.9 mb 0.00 in0.0 mm 0.00 in0.0 mm 0.00 in0.0 mm
02:53 AM 69.0°F20.6°C 63.7°F17.6°C 83% Calm Calm 3.0 mph4.8 kmh 30.02 in1016.6 mb 0.00 in0.0 mm 0.00 in0.0 mm 0.00 in0.0 mm
02:58 AM 68.9°F20.5°C 63.9°F17.7°C 84% 1.0 mph SW1.6 kmh SW 2.0 mph3.2 kmh 30.02 in1016.6 mb 0.00 in0.0 mm 0.00 in0.0 mm 0.00 in0.0 mm
03:03 AM 68.7°F20.4°C 63.7°F17.6°C 84% 1.0 mph SW1.6 kmh SW 2.0 mph3.2 kmh 30.02 in1016.6 mb 0.00 in0.0 mm 0.00 in0.0 mm 0.00 in0.0 mm
03:08 AM 68.6°F20.3°C 63.9°F17.7°C 85% Calm Calm 1.0 mph1.6 kmh 30.02 in1016.6 mb 0.00 in0.0 mm 0.00 in0.0 mm 0.00 in0.0 mm
03:13 AM 68.5°F20.3°C 63.8°F17.7°C 85% 1.0 mph S1.6 kmh S 1.0 mph1.6 kmh 30.02 in1016.6 mb 0.00 in0.0 mm 0.00 in0.0 mm 0.00 in0.0 mm
03:18 AM 68.4°F20.2°C 64.1°F17.8°C 86% Calm Calm 1.0 mph1.6 kmh 30.02 in1016.6 mb 0.00 in0.0 mm 0.00 in0.0 mm 0.00 in0.0 mm
03:23 AM 68.3°F20.2°C 64.0°F17.8°C 86% Calm Calm 1.0 mph1.6 kmh 30.02 in1016.6 mb 0.00 in0.0 mm 0.00 in0.0 mm 0.00 in0.0 mm
03:28 AM 68.2°F20.1°C 63.9°F17.7°C 86% Calm Calm 1.0 mph1.6 kmh 30.02 in1016.6 mb 0.00 in0.0 mm 0.00 in0.0 mm 0.00 in0.0 mm
03:33 AM 68.1°F20.1°C 63.8°F17.7°C 86% Calm Calm 1.0 mph1.6 kmh 30.02 in1016.6 mb 0.00 in0.0 mm 0.00 in0.0 mm 0.00 in0.0 mm
03:38 AM 67.9°F19.9°C 63.9°F17.7°C 87% Calm Calm 1.0 mph1.6 kmh 30.02 in1016.6 mb 0.00 in0.0 mm 0.00 in0.0 mm 0.00 in0.0 mm
03:42 AM 67.8°F19.9°C 63.8°F17.7°C 87% Calm Calm 1.0 mph1.6 kmh 30.02 in1016.6 mb 0.00 in0.0 mm 0.00 in0.0 mm 0.00 in0.0 mm
03:47 AM 67.6°F19.8°C 63.6°F17.6°C 87% Calm Calm 1.0 mph1.6 kmh 30.02 in1016.6 mb 0.00 in0.0 mm 0.00 in0.0 mm 0.00 in0.0 mm
03:52 AM 67.5°F19.7°C 63.8°F17.7°C 88% Calm Calm -- 30.02 in1016.6 mb 0.00 in0.0 mm 0.00 in0.0 mm 0.00 in0.0 mm
03:57 AM 67.4°F19.7°C 63.7°F17.6°C 88% Calm Calm -- 30.02 in1016.6 mb 0.00 in0.0 mm 0.00 in0.0 mm 0.00 in0.0 mm
04:02 AM 67.2°F19.6°C 63.5°F17.5°C 88% Calm Calm -- 30.02 in1016.6 mb 0.00 in0.0 mm 0.00 in0.0 mm 0.00 in0.0 mm
04:07 AM 67.2°F19.6°C 63.8°F17.7°C 89% 1.0 mph SW1.6 kmh SW 1.0 mph1.6 kmh 30.02 in1016.6 mb 0.00 in0.0 mm 0.00 in0.0 mm 0.00 in0.0 mm
04:12 AM 67.2°F19.6°C 63.8°F17.7°C 89% Calm Calm 1.0 mph1.6 kmh 30.03 in1016.9 mb 0.00 in0.0 mm 0.00 in0.0 mm 0.00 in0.0 mm
04:17 AM 67.1°F19.5°C 63.7°F17.6°C 89% 1.0 mph SW1.6 kmh SW 1.0 mph1.6 kmh 30.02 in1016.6 mb 0.00 in0.0 mm 0.00 in0.0 mm 0.00 in0.0 mm
04:22 AM 67.1°F19.5°C 63.7°F17.6°C 89% Calm Calm 3.0 mph4.8 kmh 30.03 in1016.9 mb 0.00 in0.0 mm 0.00 in0.0 mm 0.00 in0.0 mm
04:27 AM 67.1°F19.5°C 63.7°F17.6°C 89% 1.0 mph SW1.6 kmh SW 3.0 mph4.8 kmh 30.03 in1016.9 mb 0.00 in0.0 mm 0.00 in0.0 mm 0.00 in0.0 mm
04:32 AM 67.1°F19.5°C 64.0°F17.8°C 90% 1.0 mph SW1.6 kmh SW 3.0 mph4.8 kmh 30.03 in1016.9 mb 0.00 in0.0 mm 0.00 in0.0 mm 0.00 in0.0 mm
04:37 AM 67.2°F19.6°C 64.1°F17.8°C 90% 1.5 mph SSW2.4 kmh SSW 3.0 mph4.8 kmh 30.03 in1016.9 mb 0.00 in0.0 mm 0.00 in0.0 mm 0.00 in0.0 mm
04:42 AM 67.1°F19.5°C 64.0°F17.8°C 90% 1.0 mph SW1.6 kmh SW 2.0 mph3.2 kmh 30.03 in1016.9 mb 0.00 in0.0 mm 0.00 in0.0 mm 0.00 in0.0 mm
04:47 AM 67.1°F19.5°C 64.0°F17.8°C 90% 1.0 mph WSW1.6 kmh WSW 2.0 mph3.2 kmh 30.03 in1016.9 mb 0.00 in0.0 mm 0.00 in0.0 mm 0.00 in0.0 mm
04:52 AM 67.1°F19.5°C 64.0°F17.8°C 90% 1.0 mph SW1.6 kmh SW 2.0 mph3.2 kmh 30.03 in1016.9 mb 0.00 in0.0 mm 0.00 in0.0 mm 0.00 in0.0 mm
04:57 AM 67.1°F19.5°C 64.0°F17.8°C 90% Calm Calm 2.0 mph3.2 kmh 30.03 in1016.9 mb 0.00 in0.0 mm 0.00 in0.0 mm 0.00 in0.0 mm
05:02 AM 67.0°F19.4°C 64.3°F17.9°C 91% 1.0 mph SW1.6 kmh SW 2.0 mph3.2 kmh 30.04 in1017.3 mb 0.00 in0.0 mm 0.00 in0.0 mm 0.00 in0.0 mm
05:07 AM 67.0°F19.4°C 64.3°F17.9°C 91% 1.0 mph SW1.6 kmh SW 2.0 mph3.2 kmh 30.04 in1017.3 mb 0.00 in0.0 mm 0.00 in0.0 mm 0.00 in0.0 mm
05:12 AM 66.9°F19.4°C 64.2°F17.9°C 91% Calm Calm 1.0 mph1.6 kmh 30.03 in1016.9 mb 0.00 in0.0 mm 0.00 in0.0 mm 0.00 in0.0 mm
05:17 AM 66.8°F19.3°C 64.1°F17.8°C 91% Calm Calm 1.0 mph1.6 kmh 30.03 in1016.9 mb 0.00 in0.0 mm 0.00 in0.0 mm 0.00 in0.0 mm
05:22 AM 66.7°F19.3°C 64.0°F17.8°C 91% Calm Calm 1.0 mph1.6 kmh 30.03 in1016.9 mb 0.00 in0.0 mm 0.00 in0.0 mm 0.00 in0.0 mm
05:27 AM 66.7°F19.3°C 64.3°F17.9°C 92% Calm Calm 2.0 mph3.2 kmh 30.04 in1017.3 mb 0.00 in0.0 mm 0.00 in0.0 mm 0.00 in0.0 mm
05:32 AM 66.6°F19.2°C 64.2°F17.9°C 92% Calm Calm 2.0 mph3.2 kmh 30.04 in1017.3 mb 0.00 in0.0 mm 0.00 in0.0 mm 0.00 in0.0 mm
05:37 AM 66.6°F19.2°C 64.2°F17.9°C 92% 1.0 mph SW1.6 kmh SW 2.0 mph3.2 kmh 30.04 in1017.3 mb 0.00 in0.0 mm 0.00 in0.0 mm 0.00 in0.0 mm
05:42 AM 66.6°F19.2°C 64.2°F17.9°C 92% 1.0 mph SW1.6 kmh SW 1.0 mph1.6 kmh 30.04 in1017.3 mb 0.00 in0.0 mm 0.00 in0.0 mm 0.00 in0.0 mm
05:47 AM 66.7°F19.3°C 64.3°F17.9°C 92% Calm Calm 1.0 mph1.6 kmh 30.04 in1017.3 mb 0.00 in0.0 mm 0.00 in0.0 mm 0.00 in0.0 mm
05:52 AM 66.8°F19.3°C 64.7°F18.2°C 93% Calm Calm 1.0 mph1.6 kmh 30.04 in1017.3 mb 0.00 in0.0 mm 0.00 in0.0 mm 0.00 in0.0 mm
05:57 AM 67.1°F19.5°C 65.0°F18.3°C 93% 1.0 mph SW1.6 kmh SW 1.0 mph1.6 kmh 30.05 in1017.6 mb 0.00 in0.0 mm 0.00 in0.0 mm 0.00 in0.0 mm
06:02 AM 67.7°F19.8°C 65.3°F18.5°C 92% 1.1 mph SW1.8 kmh SW 2.0 mph3.2 kmh 30.05 in1017.6 mb 0.00 in0.0 mm 0.00 in0.0 mm 0.00 in0.0 mm
06:07 AM 68.2°F20.1°C 65.4°F18.6°C 91% 1.7 mph SW2.7 kmh SW 2.0 mph3.2 kmh 30.05 in1017.6 mb 0.00 in0.0 mm 0.00 in0.0 mm 0.00 in0.0 mm
06:12 AM 68.6°F20.3°C 65.5°F18.6°C 90% Calm Calm 4.0 mph6.4 kmh 30.05 in1017.6 mb 0.00 in0.0 mm 0.00 in0.0 mm 0.00 in0.0 mm
06:17 AM 69.2°F20.7°C 66.1°F18.9°C 90% Calm Calm 4.0 mph6.4 kmh 30.05 in1017.6 mb 0.00 in0.0 mm 0.00 in0.0 mm 0.00 in0.0 mm
06:22 AM 69.9°F21.1°C 66.2°F19.0°C 88% Calm Calm 4.0 mph6.4 kmh 30.05 in1017.6 mb 0.00 in0.0 mm 0.00 in0.0 mm 0.00 in0.0 mm
06:27 AM 70.5°F21.4°C 66.5°F19.2°C 87% 1.0 mph SW1.6 kmh SW 4.0 mph6.4 kmh 30.05 in1017.6 mb 0.00 in0.0 mm 0.00 in0.0 mm 0.00 in0.0 mm
06:32 AM 71.0°F21.7°C 66.6°F19.2°C 86% Calm Calm 1.0 mph1.6 kmh 30.05 in1017.6 mb 0.00 in0.0 mm 0.00 in0.0 mm 0.00 in0.0 mm
06:37 AM 71.4°F21.9°C 67.0°F19.4°C 86% Calm Calm 1.0 mph1.6 kmh 30.06 in1017.9 mb 0.00 in0.0 mm 0.00 in0.0 mm 0.00 in0.0 mm
06:42 AM 72.0°F22.2°C 67.3°F19.6°C 85% 1.0 mph SW1.6 kmh SW 1.0 mph1.6 kmh 30.06 in1017.9 mb 0.00 in0.0 mm 0.00 in0.0 mm 0.00 in0.0 mm
06:47 AM 72.4°F22.4°C 67.3°F19.6°C 84% 1.0 mph SW1.6 kmh SW 1.0 mph1.6 kmh 30.06 in1017.9 mb 0.00 in0.0 mm 0.00 in0.0 mm 0.00 in0.0 mm
06:52 AM 72.3°F22.4°C 67.2°F19.6°C 84% Calm Calm 1.0 mph1.6 kmh 30.06 in1017.9 mb 0.00 in0.0 mm 0.00 in0.0 mm 0.00 in0.0 mm
06:57 AM 72.2°F22.3°C 67.1°F19.5°C 84% 1.0 mph SW1.6 kmh SW 2.0 mph3.2 kmh 30.06 in1017.9 mb 0.00 in0.0 mm 0.00 in0.0 mm 0.00 in0.0 mm
07:02 AM 72.3°F22.4°C 67.2°F19.6°C 84% 1.7 mph SW2.7 kmh SW 3.0 mph4.8 kmh 30.06 in1017.9 mb 0.00 in0.0 mm 0.00 in0.0 mm 0.00 in0.0 mm
07:07 AM 72.4°F22.4°C 67.3°F19.6°C 84% 1.8 mph SW2.9 kmh SW 3.0 mph4.8 kmh 30.06 in1017.9 mb 0.00 in0.0 mm 0.00 in0.0 mm 0.00 in0.0 mm
07:12 AM 73.0°F22.8°C 67.6°F19.8°C 83% 1.7 mph SW2.7 kmh SW 3.0 mph4.8 kmh 30.06 in1017.9 mb 0.00 in0.0 mm 0.00 in0.0 mm 0.00 in0.0 mm
07:17 AM 73.1°F22.8°C 67.6°F19.8°C 83% 2.0 mph SW3.2 kmh SW 3.0 mph4.8 kmh 30.07 in1018.3 mb 0.00 in0.0 mm 0.00 in0.0 mm 0.00 in0.0 mm
07:22 AM 73.2°F22.9°C 67.7°F19.8°C 83% 1.2 mph SW1.9 kmh SW 3.0 mph4.8 kmh 30.07 in1018.3 mb 0.00 in0.0 mm 0.00 in0.0 mm 0.00 in0.0 mm
07:27 AM 73.5°F23.1°C 68.1°F20.1°C 83% 1.9 mph SW3.1 kmh SW 3.0 mph4.8 kmh 30.07 in1018.3 mb 0.00 in0.0 mm 0.00 in0.0 mm 0.00 in0.0 mm
07:32 AM 73.7°F23.2°C 68.3°F20.2°C 83% 1.4 mph SW2.3 kmh SW 3.0 mph4.8 kmh 30.07 in1018.3 mb 0.00 in0.0 mm 0.00 in0.0 mm 0.00 in0.0 mm
07:37 AM 73.9°F23.3°C 68.5°F20.3°C 83% 1.6 mph SW2.6 kmh SW 4.0 mph6.4 kmh 30.07 in1018.3 mb 0.00 in0.0 mm 0.00 in0.0 mm 0.00 in0.0 mm
07:42 AM 74.2°F23.4°C 68.8°F20.4°C 83% 1.6 mph WSW2.6 kmh WSW 4.0 mph6.4 kmh 30.07 in1018.3 mb 0.00 in0.0 mm 0.00 in0.0 mm 0.00 in0.0 mm
07:47 AM 74.4°F23.6°C 69.0°F20.6°C 83% 1.0 mph WSW1.6 kmh WSW 5.0 mph8.0 kmh 30.07 in1018.3 mb 0.00 in0.0 mm 0.00 in0.0 mm 0.00 in0.0 mm
07:52 AM 74.9°F23.8°C 68.8°F20.4°C 81% 1.6 mph SW2.6 kmh SW 5.0 mph8.0 kmh 30.08 in1018.6 mb 0.00 in0.0 mm 0.00 in0.0 mm 0.00 in0.0 mm
07:57 AM 75.1°F23.9°C 69.0°F20.6°C 81% 2.6 mph WSW4.2 kmh WSW 5.0 mph8.0 kmh 30.08 in1018.6 mb 0.00 in0.0 mm 0.00 in0.0 mm 0.00 in0.0 mm
08:02 AM 75.6°F24.2°C 69.4°F20.8°C 81% 1.3 mph SW2.1 kmh SW 4.0 mph6.4 kmh 30.08 in1018.6 mb 0.00 in0.0 mm 0.00 in0.0 mm 0.00 in0.0 mm
08:07 AM 76.1°F24.5°C 69.9°F21.1°C 81% 1.7 mph WSW2.7 kmh WSW 4.0 mph6.4 kmh 30.08 in1018.6 mb 0.00 in0.0 mm 0.00 in0.0 mm 0.00 in0.0 mm
08:12 AM 76.4°F24.7°C 70.2°F21.2°C 81% 1.6 mph WSW2.6 kmh WSW 4.0 mph6.4 kmh 30.08 in1018.6 mb 0.00 in0.0 mm 0.00 in0.0 mm 0.00 in0.0 mm
08:17 AM 76.9°F24.9°C 70.4°F21.3°C 80% Calm Calm 4.0 mph6.4 kmh 30.08 in1018.6 mb 0.00 in0.0 mm 0.00 in0.0 mm 0.00 in0.0 mm
08:22 AM 77.3°F25.2°C 70.4°F21.3°C 79% 1.5 mph SW2.4 kmh SW 4.0 mph6.4 kmh 30.08 in1018.6 mb 0.00 in0.0 mm 0.00 in0.0 mm 0.00 in0.0 mm
08:27 AM 77.6°F25.3°C 70.3°F21.3°C 78% 1.8 mph SW2.9 kmh SW 4.0 mph6.4 kmh 30.08 in1018.6 mb 0.00 in0.0 mm 0.00 in0.0 mm 0.00 in0.0 mm
08:32 AM 78.3°F25.7°C 71.4°F21.9°C 79% Calm Calm 3.0 mph4.8 kmh 30.09 in1019.0 mb 0.00 in0.0 mm 0.00 in0.0 mm 0.00 in0.0 mm
08:37 AM 78.7°F25.9°C 71.4°F21.9°C 78% 1.0 mph WSW1.6 kmh WSW 3.0 mph4.8 kmh 30.09 in1019.0 mb 0.00 in0.0 mm 0.00 in0.0 mm 0.00 in0.0 mm
08:42 AM 78.4°F25.8°C 70.7°F21.5°C 77% 2.3 mph WSW3.7 kmh WSW 5.0 mph8.0 kmh 30.09 in1019.0 mb 0.00 in0.0 mm 0.00 in0.0 mm 0.00 in0.0 mm
08:47 AM 78.6°F25.9°C 71.3°F21.8°C 78% 2.1 mph SW3.4 kmh SW 5.0 mph8.0 kmh 30.09 in1019.0 mb 0.00 in0.0 mm 0.00 in0.0 mm 0.00 in0.0 mm
08:52 AM 78.8°F26.0°C 71.4°F21.9°C 78% 1.2 mph S1.9 kmh S 5.0 mph8.0 kmh 30.09 in1019.0 mb 0.00 in0.0 mm 0.00 in0.0 mm 0.00 in0.0 mm
08:57 AM 79.3°F26.3°C 71.1°F21.7°C 76% 1.8 mph SW2.9 kmh SW 5.0 mph8.0 kmh 30.09 in1019.0 mb 0.00 in0.0 mm 0.00 in0.0 mm 0.00 in0.0 mm
09:02 AM 79.6°F26.4°C 71.9°F22.2°C 77% 2.3 mph SSW3.7 kmh SSW 5.0 mph8.0 kmh 30.09 in1019.0 mb 0.00 in0.0 mm 0.00 in0.0 mm 0.00 in0.0 mm
09:07 AM 80.3°F26.8°C 72.2°F22.3°C 76% 1.4 mph WSW2.3 kmh WSW 4.0 mph6.4 kmh 30.09 in1019.0 mb 0.00 in0.0 mm 0.00 in0.0 mm 0.00 in0.0 mm
09:12 AM 80.1°F26.7°C 71.3°F21.8°C 74% 1.6 mph SW2.6 kmh SW 4.0 mph6.4 kmh 30.09 in1019.0 mb 0.00 in0.0 mm 0.00 in0.0 mm 0.00 in0.0 mm
09:17 AM 80.3°F26.8°C 71.8°F22.1°C 75% 1.0 mph W1.6 kmh W 4.0 mph6.4 kmh 30.09 in1019.0 mb 0.00 in0.0 mm 0.00 in0.0 mm 0.00 in0.0 mm
09:22 AM 80.9°F27.2°C 72.0°F22.2°C 74% 2.3 mph SW3.7 kmh SW 4.0 mph6.4 kmh 30.09 in1019.0 mb 0.00 in0.0 mm 0.00 in0.0 mm 0.00 in0.0 mm
09:27 AM 80.8°F27.1°C 71.5°F21.9°C 73% 2.1 mph SW3.4 kmh SW 5.0 mph8.0 kmh 30.09 in1019.0 mb 0.00 in0.0 mm 0.00 in0.0 mm 0.00 in0.0 mm
09:32 AM 81.2°F27.3°C 71.9°F22.2°C 73% 2.1 mph SW3.4 kmh SW 5.0 mph8.0 kmh 30.09 in1019.0 mb 0.00 in0.0 mm 0.00 in0.0 mm 0.00 in0.0 mm
09:37 AM 81.5°F27.5°C 72.8°F22.7°C 75% 1.0 mph W1.6 kmh W 5.0 mph8.0 kmh 30.09 in1019.0 mb 0.00 in0.0 mm 0.00 in0.0 mm 0.00 in0.0 mm
09:41 AM 82.5°F28.1°C 72.8°F22.7°C 72% 1.5 mph SW2.4 kmh SW 5.0 mph8.0 kmh 30.08 in1018.6 mb 0.00 in0.0 mm 0.00 in0.0 mm 0.00 in0.0 mm
09:46 AM 83.0°F28.3°C 72.9°F22.7°C 71% 1.1 mph ENE1.8 kmh ENE 4.0 mph6.4 kmh 30.08 in1018.6 mb 0.00 in0.0 mm 0.00 in0.0 mm 0.00 in0.0 mm
09:51 AM 83.5°F28.6°C 72.7°F22.6°C 70% 1.4 mph SSW2.3 kmh SSW 3.0 mph4.8 kmh 30.09 in1019.0 mb 0.00 in0.0 mm 0.00 in0.0 mm 0.00 in0.0 mm
09:56 AM 83.2°F28.4°C 72.2°F22.3°C 69% 2.6 mph SW4.2 kmh SW 6.0 mph9.7 kmh 30.08 in1018.6 mb 0.00 in0.0 mm 0.00 in0.0 mm 0.00 in0.0 mm
10:01 AM 82.7°F28.2°C 72.2°F22.3°C 70% 1.8 mph WSW2.9 kmh WSW 6.0 mph9.7 kmh 30.09 in1019.0 mb 0.00 in0.0 mm 0.00 in0.0 mm 0.00 in0.0 mm
10:06 AM 82.7°F28.2°C 72.6°F22.6°C 71% 1.9 mph SW3.1 kmh SW 6.0 mph9.7 kmh 30.09 in1019.0 mb 0.00 in0.0 mm 0.00 in0.0 mm 0.00 in0.0 mm
10:11 AM 82.8°F28.2°C 72.0°F22.2°C 70% 2.0 mph WSW3.2 kmh WSW 6.0 mph9.7 kmh 30.09 in1019.0 mb 0.00 in0.0 mm 0.00 in0.0 mm 0.00 in0.0 mm
10:16 AM 83.2°F28.4°C 72.2°F22.3°C 69% 1.6 mph SE2.6 kmh SE 6.0 mph9.7 kmh 30.09 in1019.0 mb 0.00 in0.0 mm 0.00 in0.0 mm 0.00 in0.0 mm
10:21 AM 83.7°F28.7°C 71.8°F22.1°C 67% 3.3 mph WNW5.3 kmh WNW 6.0 mph9.7 kmh 30.09 in1019.0 mb 0.00 in0.0 mm 0.00 in0.0 mm 0.00 in0.0 mm
10:26 AM 83.1°F28.4°C 71.7°F22.1°C 68% 4.4 mph WNW7.1 kmh WNW 9.0 mph14.5 kmh 30.08 in1018.6 mb 0.00 in0.0 mm 0.00 in0.0 mm 0.00 in0.0 mm
10:31 AM 83.2°F28.4°C 71.5°F21.9°C 68% 3.1 mph W5.0 kmh W 9.0 mph14.5 kmh 30.08 in1018.6 mb 0.00 in0.0 mm 0.00 in0.0 mm 0.00 in0.0 mm
10:36 AM 83.4°F28.6°C 72.0°F22.2°C 68% 2.0 mph WSW3.2 kmh WSW 9.0 mph14.5 kmh 30.08 in1018.6 mb 0.00 in0.0 mm 0.00 in0.0 mm 0.00 in0.0 mm
10:41 AM 83.7°F28.7°C 71.4°F21.9°C 66% 3.7 mph SW6.0 kmh SW 9.0 mph14.5 kmh 30.08 in1018.6 mb 0.00 in0.0 mm 0.00 in0.0 mm 0.00 in0.0 mm
10:46 AM 84.7°F29.3°C 72.5°F22.5°C 67% 1.4 mph SSE2.3 kmh SSE 9.0 mph14.5 kmh 30.08 in1018.6 mb 0.00 in0.0 mm 0.00 in0.0 mm 0.00 in0.0 mm
10:51 AM 84.7°F29.3°C 71.4°F21.9°C 64% 3.6 mph SW5.8 kmh SW 11.0 mph17.7 kmh 30.08 in1018.6 mb 0.00 in0.0 mm 0.00 in0.0 mm 0.00 in0.0 mm
10:56 AM 84.7°F29.3°C 71.4°F21.9°C 64% 2.7 mph WSW4.3 kmh WSW 11.0 mph17.7 kmh 30.08 in1018.6 mb 0.00 in0.0 mm 0.00 in0.0 mm 0.00 in0.0 mm
11:01 AM 84.5°F29.2°C 71.7°F22.1°C 65% 2.7 mph SW4.3 kmh SW 11.0 mph17.7 kmh 30.07 in1018.3 mb 0.00 in0.0 mm 0.00 in0.0 mm 0.00 in0.0 mm
11:06 AM 84.6°F29.2°C 71.8°F22.1°C 65% 2.4 mph SW3.9 kmh SW 11.0 mph17.7 kmh 30.08 in1018.6 mb 0.00 in0.0 mm 0.00 in0.0 mm 0.00 in0.0 mm
11:11 AM 84.9°F29.4°C 71.4°F21.9°C 64% 2.4 mph WSW3.9 kmh WSW 6.0 mph9.7 kmh 30.07 in1018.3 mb 0.00 in0.0 mm 0.00 in0.0 mm 0.00 in0.0 mm
11:16 AM 85.7°F29.8°C 71.7°F22.1°C 63% 1.0 mph SW1.6 kmh SW 6.0 mph9.7 kmh 30.07 in1018.3 mb 0.00 in0.0 mm 0.00 in0.0 mm 0.00 in0.0 mm
11:21 AM 86.1°F30.1°C 72.3°F22.4°C 63% 1.4 mph WSW2.3 kmh WSW 5.0 mph8.0 kmh 30.07 in1018.3 mb 0.00 in0.0 mm 0.00 in0.0 mm 0.00 in0.0 mm
11:26 AM 85.4°F29.7°C 72.1°F22.3°C 64% 2.3 mph WSW3.7 kmh WSW 7.0 mph11.3 kmh 30.07 in1018.3 mb 0.00 in0.0 mm 0.00 in0.0 mm 0.00 in0.0 mm
11:31 AM 84.9°F29.4°C 71.6°F22.0°C 64% 3.0 mph SW4.8 kmh SW 7.0 mph11.3 kmh 30.07 in1018.3 mb 0.00 in0.0 mm 0.00 in0.0 mm 0.00 in0.0 mm
11:36 AM 84.7°F29.3°C 71.6°F22.0°C 65% 2.5 mph WSW4.0 kmh WSW 7.0 mph11.3 kmh 30.07 in1018.3 mb 0.00 in0.0 mm 0.00 in0.0 mm 0.00 in0.0 mm
11:41 AM 84.9°F29.4°C 72.1°F22.3°C 65% 2.4 mph W3.9 kmh W 8.0 mph12.9 kmh 30.07 in1018.3 mb 0.00 in0.0 mm 0.00 in0.0 mm 0.00 in0.0 mm
11:46 AM 85.1°F29.5°C 71.8°F22.1°C 64% 3.8 mph WSW6.1 kmh WSW 9.0 mph14.5 kmh 30.07 in1018.3 mb 0.00 in0.0 mm 0.00 in0.0 mm 0.00 in0.0 mm
11:51 AM 85.5°F29.7°C 71.9°F22.2°C 64% 2.6 mph WSW4.2 kmh WSW 9.0 mph14.5 kmh 30.07 in1018.3 mb 0.00 in0.0 mm 0.00 in0.0 mm 0.00 in0.0 mm
11:56 AM 86.3°F30.2°C 72.5°F22.5°C 63% 1.4 mph WSW2.3 kmh WSW 9.0 mph14.5 kmh 30.07 in1018.3 mb 0.00 in0.0 mm 0.00 in0.0 mm 0.00 in0.0 mm
12:01 PM 85.9°F29.9°C 72.1°F22.3°C 63% 1.8 mph SW2.9 kmh SW 9.0 mph14.5 kmh 30.07 in1018.3 mb 0.00 in0.0 mm 0.00 in0.0 mm 0.00 in0.0 mm
12:06 PM 85.8°F29.9°C 71.6°F22.0°C 62% 1.9 mph SW3.1 kmh SW 5.0 mph8.0 kmh 30.06 in1017.9 mb 0.00 in0.0 mm 0.00 in0.0 mm 0.00 in0.0 mm
12:11 PM 85.9°F29.9°C 71.8°F22.1°C 63% 1.2 mph WSW1.9 kmh WSW 6.0 mph9.7 kmh 30.06 in1017.9 mb 0.00 in0.0 mm 0.00 in0.0 mm 0.00 in0.0 mm
12:16 PM 86.9°F30.5°C 73.1°F22.8°C 63% 2.9 mph SSE4.7 kmh SSE 7.0 mph11.3 kmh 30.05 in1017.6 mb 0.00 in0.0 mm 0.00 in0.0 mm 0.00 in0.0 mm
12:21 PM 86.3°F30.2°C 71.1°F21.7°C 60% 4.4 mph SW7.1 kmh SW 9.0 mph14.5 kmh 30.05 in1017.6 mb 0.00 in0.0 mm 0.00 in0.0 mm 0.00 in0.0 mm
12:26 PM 86.2°F30.1°C 72.9°F22.7°C 64% 1.0 mph SE1.6 kmh SE 9.0 mph14.5 kmh 30.05 in1017.6 mb 0.00 in0.0 mm 0.00 in0.0 mm 0.00 in0.0 mm
12:31 PM 86.8°F30.4°C 71.7°F22.1°C 61% 2.8 mph WSW4.5 kmh WSW 9.0 mph14.5 kmh 30.05 in1017.6 mb 0.00 in0.0 mm 0.00 in0.0 mm 0.00 in0.0 mm
12:36 PM 86.0°F30.0°C 71.7°F22.1°C 62% 3.1 mph WSW5.0 kmh WSW 9.0 mph14.5 kmh 30.04 in1017.3 mb 0.00 in0.0 mm 0.00 in0.0 mm 0.00 in0.0 mm
12:41 PM 86.4°F30.2°C 71.6°F22.0°C 61% 2.5 mph S4.0 kmh S 9.0 mph14.5 kmh 30.04 in1017.3 mb 0.00 in0.0 mm 0.00 in0.0 mm 0.00 in0.0 mm
12:46 PM 87.1°F30.6°C 71.8°F22.1°C 60% 3.1 mph S5.0 kmh S 9.0 mph14.5 kmh 30.04 in1017.3 mb 0.00 in0.0 mm 0.00 in0.0 mm 0.00 in0.0 mm
12:51 PM 87.5°F30.8°C 71.2°F21.8°C 58% 2.1 mph SW3.4 kmh SW 9.0 mph14.5 kmh 30.03 in1016.9 mb 0.00 in0.0 mm 0.00 in0.0 mm 0.00 in0.0 mm
12:56 PM 87.2°F30.7°C 71.6°F22.0°C 60% 2.0 mph SW3.2 kmh SW 7.0 mph11.3 kmh 30.03 in1016.9 mb 0.00 in0.0 mm 0.00 in0.0 mm 0.00 in0.0 mm
01:01 PM 87.2°F30.7°C 71.9°F22.2°C 60% 2.6 mph WSW4.2 kmh WSW 7.0 mph11.3 kmh 30.03 in1016.9 mb 0.00 in0.0 mm 0.00 in0.0 mm 0.00 in0.0 mm
01:06 PM 87.4°F30.8°C 70.6°F21.4°C 57% 2.0 mph SW3.2 kmh SW 7.0 mph11.3 kmh 30.03 in1016.9 mb 0.00 in0.0 mm 0.00 in0.0 mm 0.00 in0.0 mm
01:11 PM 86.4°F30.2°C 70.9°F21.6°C 60% 2.8 mph SW4.5 kmh SW 7.0 mph11.3 kmh 30.03 in1016.9 mb 0.00 in0.0 mm 0.00 in0.0 mm 0.00 in0.0 mm
01:16 PM 86.5°F30.3°C 69.7°F20.9°C 57% 3.2 mph NW5.1 kmh NW 7.0 mph11.3 kmh 30.02 in1016.6 mb 0.00 in0.0 mm 0.00 in0.0 mm 0.00 in0.0 mm
01:21 PM 87.0°F30.6°C 70.7°F21.5°C 58% 2.1 mph SW3.4 kmh SW 7.0 mph11.3 kmh 30.02 in1016.6 mb 0.00 in0.0 mm 0.00 in0.0 mm 0.00 in0.0 mm
01:26 PM 87.1°F30.6°C 70.8°F21.6°C 58% 2.4 mph SW3.9 kmh SW 7.0 mph11.3 kmh 30.02 in1016.6 mb 0.00 in0.0 mm 0.00 in0.0 mm 0.00 in0.0 mm
01:31 PM 87.5°F30.8°C 70.4°F21.3°C 57% 2.7 mph WSW4.3 kmh WSW 8.0 mph12.9 kmh 30.02 in1016.6 mb 0.00 in0.0 mm 0.00 in0.0 mm 0.00 in0.0 mm
01:36 PM 87.9°F31.1°C 70.5°F21.4°C 56% 3.0 mph WSW4.8 kmh WSW 8.0 mph12.9 kmh 30.02 in1016.6 mb 0.00 in0.0 mm 0.00 in0.0 mm 0.00 in0.0 mm
01:41 PM 87.9°F31.1°C 71.5°F21.9°C 58% 1.2 mph WSW1.9 kmh WSW 8.0 mph12.9 kmh 30.01 in1016.3 mb 0.00 in0.0 mm 0.00 in0.0 mm 0.00 in0.0 mm
01:46 PM 88.3°F31.3°C 70.6°F21.4°C 56% 2.0 mph S3.2 kmh S 8.0 mph12.9 kmh 30.01 in1016.3 mb 0.00 in0.0 mm 0.00 in0.0 mm 0.00 in0.0 mm
01:51 PM 88.4°F31.3°C 69.9°F21.1°C 54% 1.2 mph SW1.9 kmh SW 8.0 mph12.9 kmh 30.01 in1016.3 mb 0.00 in0.0 mm 0.00 in0.0 mm 0.00 in0.0 mm
01:56 PM 88.4°F31.3°C 69.9°F21.1°C 54% 1.7 mph SSE2.7 kmh SSE 7.0 mph11.3 kmh 30.01 in1016.3 mb 0.00 in0.0 mm 0.00 in0.0 mm 0.00 in0.0 mm
02:01 PM 88.5°F31.4°C 71.1°F21.7°C 56% 2.0 mph SW3.2 kmh SW 7.0 mph11.3 kmh 30.01 in1016.3 mb 0.00 in0.0 mm 0.00 in0.0 mm 0.00 in0.0 mm
02:06 PM 88.6°F31.4°C 70.9°F21.6°C 56% 2.1 mph SW3.4 kmh SW 7.0 mph11.3 kmh 30.01 in1016.3 mb 0.00 in0.0 mm 0.00 in0.0 mm 0.00 in0.0 mm
02:11 PM 89.1°F31.7°C 71.1°F21.7°C 55% 1.6 mph WSW2.6 kmh WSW 7.0 mph11.3 kmh 30.01 in1016.3 mb 0.00 in0.0 mm 0.00 in0.0 mm 0.00 in0.0 mm
02:16 PM 88.9°F31.6°C 69.8°F21.0°C 53% 4.0 mph SW6.4 kmh SW 9.0 mph14.5 kmh 30.00 in1015.9 mb 0.00 in0.0 mm 0.00 in0.0 mm 0.00 in0.0 mm
02:21 PM 88.8°F31.6°C 69.7°F20.9°C 53% 1.9 mph SE3.1 kmh SE 9.0 mph14.5 kmh 30.00 in1015.9 mb 0.00 in0.0 mm 0.00 in0.0 mm 0.00 in0.0 mm
02:26 PM 89.0°F31.7°C 69.6°F20.9°C 53% 1.9 mph W3.1 kmh W 9.0 mph14.5 kmh 30.00 in1015.9 mb 0.00 in0.0 mm 0.00 in0.0 mm 0.00 in0.0 mm
02:31 PM 88.6°F31.4°C 69.5°F20.8°C 53% 2.7 mph W4.3 kmh W 9.0 mph14.5 kmh 30.00 in1015.9 mb 0.00 in0.0 mm 0.00 in0.0 mm 0.00 in0.0 mm
02:36 PM 88.8°F31.6°C 68.5°F20.3°C 51% 3.7 mph SW6.0 kmh SW 8.0 mph12.9 kmh 30.00 in1015.9 mb 0.00 in0.0 mm 0.00 in0.0 mm 0.00 in0.0 mm
02:41 PM 88.8°F31.6°C 68.5°F20.3°C 51% 2.1 mph SW3.4 kmh SW 8.0 mph12.9 kmh 30.00 in1015.9 mb 0.00 in0.0 mm 0.00 in0.0 mm 0.00 in0.0 mm
02:46 PM 88.9°F31.6°C 69.8°F21.0°C 53% 1.8 mph WSW2.9 kmh WSW 8.0 mph12.9 kmh 30.00 in1015.9 mb 0.00 in0.0 mm 0.00 in0.0 mm 0.00 in0.0 mm
02:51 PM 88.6°F31.4°C 69.3°F20.7°C 53% 3.4 mph SW5.5 kmh SW 8.0 mph12.9 kmh 30.00 in1015.9 mb 0.00 in0.0 mm 0.00 in0.0 mm 0.00 in0.0 mm
02:57 PM 89.0°F31.7°C 69.9°F21.1°C 53% 2.8 mph SW4.5 kmh SW 8.0 mph12.9 kmh 29.99 in1015.6 mb 0.00 in0.0 mm 0.00 in0.0 mm 0.00 in0.0 mm
03:01 PM 88.9°F31.6°C 68.6°F20.3°C 51% 2.8 mph SW4.5 kmh SW 8.0 mph12.9 kmh 29.99 in1015.6 mb 0.00 in0.0 mm 0.00 in0.0 mm 0.00 in0.0 mm
03:07 PM 88.5°F31.4°C 69.4°F20.8°C 53% 1.4 mph WSW2.3 kmh WSW 8.0 mph12.9 kmh 29.99 in1015.6 mb 0.00 in0.0 mm 0.00 in0.0 mm 0.00 in0.0 mm
03:11 PM 89.2°F31.8°C 70.6°F21.4°C 54% 1.0 mph WSW1.6 kmh WSW 8.0 mph12.9 kmh 29.99 in1015.6 mb 0.00 in0.0 mm 0.00 in0.0 mm 0.00 in0.0 mm
03:16 PM 89.3°F31.8°C 69.0°F20.6°C 51% 1.6 mph SW2.6 kmh SW 8.0 mph12.9 kmh 29.98 in1015.2 mb 0.00 in0.0 mm 0.00 in0.0 mm 0.00 in0.0 mm
03:22 PM 89.3°F31.8°C 69.4°F20.8°C 52% 1.8 mph SW2.9 kmh SW 4.0 mph6.4 kmh 29.98 in1015.2 mb 0.00 in0.0 mm 0.00 in0.0 mm 0.00 in0.0 mm
03:26 PM 88.7°F31.5°C 70.2°F21.2°C 54% 1.6 mph SW2.6 kmh SW 4.0 mph6.4 kmh 29.98 in1015.2 mb 0.00 in0.0 mm 0.00 in0.0 mm 0.00 in0.0 mm
03:31 PM 88.9°F31.6°C 70.3°F21.3°C 54% 3.0 mph W4.8 kmh W 7.0 mph11.3 kmh 29.97 in1014.9 mb 0.00 in0.0 mm 0.00 in0.0 mm 0.00 in0.0 mm
03:36 PM 89.1°F31.7°C 70.0°F21.1°C 53% 1.4 mph SW2.3 kmh SW 7.0 mph11.3 kmh 29.97 in1014.9 mb 0.00 in0.0 mm 0.00 in0.0 mm 0.00 in0.0 mm
03:40 PM 88.4°F31.3°C 69.3°F20.7°C 53% 1.5 mph WSW2.4 kmh WSW 7.0 mph11.3 kmh 29.97 in1014.9 mb 0.00 in0.0 mm 0.00 in0.0 mm 0.00 in0.0 mm
03:45 PM 88.2°F31.2°C 70.2°F21.2°C 55% 1.0 mph W1.6 kmh W 7.0 mph11.3 kmh 29.97 in1014.9 mb 0.00 in0.0 mm 0.00 in0.0 mm 0.00 in0.0 mm
03:50 PM 88.7°F31.5°C 68.4°F20.2°C 51% 3.2 mph SW5.1 kmh SW 6.0 mph9.7 kmh 29.97 in1014.9 mb 0.00 in0.0 mm 0.00 in0.0 mm 0.00 in0.0 mm
03:55 PM 88.4°F31.3°C 69.3°F20.7°C 53% Calm Calm 6.0 mph9.7 kmh 29.97 in1014.9 mb 0.00 in0.0 mm 0.00 in0.0 mm 0.00 in0.0 mm
04:00 PM 89.0°F31.7°C 68.7°F20.4°C 51% 2.0 mph SSE3.2 kmh SSE 6.0 mph9.7 kmh 29.97 in1014.9 mb 0.00 in0.0 mm 0.00 in0.0 mm 0.00 in0.0 mm
04:05 PM 89.4°F31.9°C 68.5°F20.3°C 50% 2.1 mph SSW3.4 kmh SSW 6.0 mph9.7 kmh 29.97 in1014.9 mb 0.00 in0.0 mm 0.00 in0.0 mm 0.00 in0.0 mm
04:10 PM 89.9°F32.2°C 69.9°F21.1°C 52% 2.0 mph SW3.2 kmh SW 5.0 mph8.0 kmh 29.97 in1014.9 mb 0.00 in0.0 mm 0.00 in0.0 mm 0.00 in0.0 mm
04:15 PM 90.2°F32.3°C 69.2°F20.7°C 50% 1.6 mph SE2.6 kmh SE 5.0 mph8.0 kmh 29.97 in1014.9 mb 0.00 in0.0 mm 0.00 in0.0 mm 0.00 in0.0 mm
04:20 PM 90.6°F32.6°C 70.2°F21.2°C 51% 1.0 mph SW1.6 kmh SW 4.0 mph6.4 kmh 29.97 in1014.9 mb 0.00 in0.0 mm 0.00 in0.0 mm 0.00 in0.0 mm
04:25 PM 90.5°F32.5°C 69.5°F20.8°C 50% 2.3 mph WSW3.7 kmh WSW 4.0 mph6.4 kmh 29.97 in1014.9 mb 0.00 in0.0 mm 0.00 in0.0 mm 0.00 in0.0 mm
04:30 PM 89.9°F32.2°C 68.8°F20.4°C 50% 1.7 mph WNW2.7 kmh WNW 4.0 mph6.4 kmh 29.97 in1014.9 mb 0.00 in0.0 mm 0.00 in0.0 mm 0.00 in0.0 mm
04:35 PM 89.9°F32.2°C 68.9°F20.5°C 50% 1.7 mph SW2.7 kmh SW 4.0 mph6.4 kmh 29.97 in1014.9 mb 0.00 in0.0 mm 0.00 in0.0 mm 0.00 in0.0 mm
04:40 PM 90.2°F32.3°C 69.8°F21.0°C 51% 1.7 mph SSW2.7 kmh SSW 4.0 mph6.4 kmh 29.97 in1014.9 mb 0.00 in0.0 mm 0.00 in0.0 mm 0.00 in0.0 mm
04:45 PM 89.8°F32.1°C 68.1°F20.1°C 49% 3.7 mph SW6.0 kmh SW 6.0 mph9.7 kmh 29.97 in1014.9 mb 0.00 in0.0 mm 0.00 in0.0 mm 0.00 in0.0 mm
04:50 PM 89.5°F31.9°C 69.8°F21.0°C 52% 2.0 mph S3.2 kmh S 6.0 mph9.7 kmh 29.97 in1014.9 mb 0.00 in0.0 mm 0.00 in0.0 mm 0.00 in0.0 mm
04:55 PM 89.8°F32.1°C 68.9°F20.5°C 50% 2.3 mph SW3.7 kmh SW 6.0 mph9.7 kmh 29.97 in1014.9 mb 0.00 in0.0 mm 0.00 in0.0 mm 0.00 in0.0 mm
05:00 PM 89.2°F31.8°C 68.9°F20.5°C 51% 1.5 mph W2.4 kmh W 6.0 mph9.7 kmh 29.97 in1014.9 mb 0.00 in0.0 mm 0.00 in0.0 mm 0.00 in0.0 mm
05:05 PM 89.2°F31.8°C 69.3°F20.7°C 52% 1.9 mph WSW3.1 kmh WSW 6.0 mph9.7 kmh 29.97 in1014.9 mb 0.00 in0.0 mm 0.00 in0.0 mm 0.00 in0.0 mm
05:10 PM 89.1°F31.7°C 70.0°F21.1°C 53% 1.2 mph WSW1.9 kmh WSW 6.0 mph9.7 kmh 29.97 in1014.9 mb 0.00 in0.0 mm 0.00 in0.0 mm 0.00 in0.0 mm
05:15 PM 88.6°F31.4°C 69.5°F20.8°C 53% 1.8 mph SW2.9 kmh SW 6.0 mph9.7 kmh 29.97 in1014.9 mb 0.00 in0.0 mm 0.00 in0.0 mm 0.00 in0.0 mm
05:21 PM 88.5°F31.4°C 70.0°F21.1°C 54% 1.7 mph WSW2.7 kmh WSW 4.0 mph6.4 kmh 29.97 in1014.9 mb 0.00 in0.0 mm 0.00 in0.0 mm 0.00 in0.0 mm
05:25 PM 88.6°F31.4°C 68.7°F20.4°C 52% 2.0 mph WSW3.2 kmh WSW 4.0 mph6.4 kmh 29.97 in1014.9 mb 0.00 in0.0 mm 0.00 in0.0 mm 0.00 in0.0 mm
05:31 PM 88.7°F31.5°C 69.0°F20.6°C 52% 1.7 mph SW2.7 kmh SW 4.0 mph6.4 kmh 29.97 in1014.9 mb 0.00 in0.0 mm 0.00 in0.0 mm 0.00 in0.0 mm
05:36 PM 89.0°F31.7°C 68.7°F20.4°C 51% 1.1 mph SW1.8 kmh SW 4.0 mph6.4 kmh 29.96 in1014.6 mb 0.00 in0.0 mm 0.00 in0.0 mm 0.00 in0.0 mm
05:40 PM 89.1°F31.7°C 68.8°F20.4°C 51% 2.1 mph SW3.4 kmh SW 4.0 mph6.4 kmh 29.97 in1014.9 mb 0.00 in0.0 mm 0.00 in0.0 mm 0.00 in0.0 mm
05:46 PM 88.9°F31.6°C 68.4°F20.2°C 51% 1.0 mph WSW1.6 kmh WSW 3.0 mph4.8 kmh 29.96 in1014.6 mb 0.00 in0.0 mm 0.00 in0.0 mm 0.00 in0.0 mm
05:51 PM 89.2°F31.8°C 68.3°F20.2°C 50% 1.4 mph SW2.3 kmh SW 3.0 mph4.8 kmh 29.96 in1014.6 mb 0.00 in0.0 mm 0.00 in0.0 mm 0.00 in0.0 mm
05:55 PM 89.1°F31.7°C 68.8°F20.4°C 51% 1.0 mph SW1.6 kmh SW 3.0 mph4.8 kmh 29.96 in1014.6 mb 0.00 in0.0 mm 0.00 in0.0 mm 0.00 in0.0 mm
06:01 PM 89.5°F31.9°C 69.2°F20.7°C 51% Calm Calm 3.0 mph4.8 kmh 29.96 in1014.6 mb 0.00 in0.0 mm 0.00 in0.0 mm 0.00 in0.0 mm
06:06 PM 89.4°F31.9°C 68.9°F20.5°C 51% 1.3 mph WSW2.1 kmh WSW 2.0 mph3.2 kmh 29.96 in1014.6 mb 0.00 in0.0 mm 0.00 in0.0 mm 0.00 in0.0 mm
06:11 PM 89.1°F31.7°C 69.4°F20.8°C 52% 1.0 mph SW1.6 kmh SW 2.0 mph3.2 kmh 29.96 in1014.6 mb 0.00 in0.0 mm 0.00 in0.0 mm 0.00 in0.0 mm
06:16 PM 89.0°F31.7°C 68.7°F20.4°C 51% 1.1 mph SW1.8 kmh SW 2.0 mph3.2 kmh 29.97 in1014.9 mb 0.00 in0.0 mm 0.00 in0.0 mm 0.00 in0.0 mm
06:21 PM 88.9°F31.6°C 67.9°F19.9°C 50% 1.7 mph WSW2.7 kmh WSW 3.0 mph4.8 kmh 29.97 in1014.9 mb 0.00 in0.0 mm 0.00 in0.0 mm 0.00 in0.0 mm
06:26 PM 88.9°F31.6°C 68.0°F20.0°C 50% 1.5 mph WSW2.4 kmh WSW 3.0 mph4.8 kmh 29.97 in1014.9 mb 0.00 in0.0 mm 0.00 in0.0 mm 0.00 in0.0 mm
06:31 PM 88.9°F31.6°C 68.6°F20.3°C 51% 1.6 mph WSW2.6 kmh WSW 3.0 mph4.8 kmh 29.97 in1014.9 mb 0.00 in0.0 mm 0.00 in0.0 mm 0.00 in0.0 mm
06:36 PM 89.1°F31.7°C 68.2°F20.1°C 50% 1.1 mph SW1.8 kmh SW 3.0 mph4.8 kmh 29.97 in1014.9 mb 0.00 in0.0 mm 0.00 in0.0 mm 0.00 in0.0 mm
06:41 PM 89.1°F31.7°C 68.2°F20.1°C 50% 1.5 mph SW2.4 kmh SW 3.0 mph4.8 kmh 29.97 in1014.9 mb 0.00 in0.0 mm 0.00 in0.0 mm 0.00 in0.0 mm
06:46 PM 89.3°F31.8°C 68.4°F20.2°C 50% 1.0 mph SW1.6 kmh SW 3.0 mph4.8 kmh 29.97 in1014.9 mb 0.00 in0.0 mm 0.00 in0.0 mm 0.00 in0.0 mm
06:51 PM 89.2°F31.8°C 68.3°F20.2°C 50% 1.0 mph SW1.6 kmh SW 2.0 mph3.2 kmh 29.97 in1014.9 mb 0.00 in0.0 mm 0.00 in0.0 mm 0.00 in0.0 mm
06:56 PM 88.9°F31.6°C 68.0°F20.0°C 50% 1.0 mph SW1.6 kmh SW 3.0 mph4.8 kmh 29.97 in1014.9 mb 0.00 in0.0 mm 0.00 in0.0 mm 0.00 in0.0 mm
07:01 PM 88.6°F31.4°C 68.2°F20.1°C 51% Calm Calm 3.0 mph4.8 kmh 29.97 in1014.9 mb 0.00 in0.0 mm 0.00 in0.0 mm 0.00 in0.0 mm
07:06 PM 88.1°F31.2°C 68.5°F20.3°C 52% Calm Calm 3.0 mph4.8 kmh 29.98 in1015.2 mb 0.00 in0.0 mm 0.00 in0.0 mm 0.00 in0.0 mm
07:11 PM 87.5°F30.8°C 68.5°F20.3°C 53% 1.0 mph SW1.6 kmh SW 3.0 mph4.8 kmh 29.98 in1015.2 mb 0.00 in0.0 mm 0.00 in0.0 mm 0.00 in0.0 mm
07:16 PM 87.0°F30.6°C 68.3°F20.2°C 54% Calm Calm 1.0 mph1.6 kmh 29.98 in1015.2 mb 0.00 in0.0 mm 0.00 in0.0 mm 0.00 in0.0 mm
07:21 PM 86.7°F30.4°C 69.4°F20.8°C 56% Calm Calm 1.0 mph1.6 kmh 29.98 in1015.2 mb 0.00 in0.0 mm 0.00 in0.0 mm 0.00 in0.0 mm
07:26 PM 86.4°F30.2°C 70.1°F21.2°C 58% Calm Calm 1.0 mph1.6 kmh 29.98 in1015.2 mb 0.00 in0.0 mm 0.00 in0.0 mm 0.00 in0.0 mm
07:31 PM 86.0°F30.0°C 70.3°F21.3°C 59% Calm Calm 1.0 mph1.6 kmh 29.98 in1015.2 mb 0.00 in0.0 mm 0.00 in0.0 mm 0.00 in0.0 mm
07:36 PM 85.4°F29.7°C 69.7°F20.9°C 59% Calm Calm -- 29.97 in1014.9 mb 0.00 in0.0 mm 0.00 in0.0 mm 0.00 in0.0 mm
07:41 PM 84.7°F29.3°C 70.0°F21.1°C 61% 2.0 mph SE3.2 kmh SE 5.0 mph8.0 kmh 29.98 in1015.2 mb 0.00 in0.0 mm 0.00 in0.0 mm 0.00 in0.0 mm
07:46 PM 84.1°F28.9°C 69.7°F20.9°C 62% 1.0 mph SE1.6 kmh SE 5.0 mph8.0 kmh 29.98 in1015.2 mb 0.00 in0.0 mm 0.00 in0.0 mm 0.00 in0.0 mm
07:51 PM 83.7°F28.7°C 69.8°F21.0°C 63% 1.3 mph SE2.1 kmh SE 5.0 mph8.0 kmh 29.97 in1014.9 mb 0.00 in0.0 mm 0.00 in0.0 mm 0.00 in0.0 mm
07:56 PM 83.4°F28.6°C 69.7°F20.9°C 63% 1.0 mph SE1.6 kmh SE 5.0 mph8.0 kmh 29.98 in1015.2 mb 0.00 in0.0 mm 0.00 in0.0 mm 0.00 in0.0 mm
08:01 PM 83.3°F28.5°C 69.4°F20.8°C 63% 1.0 mph SE1.6 kmh SE 3.0 mph4.8 kmh 29.98 in1015.2 mb 0.00 in0.0 mm 0.00 in0.0 mm 0.00 in0.0 mm
08:06 PM 83.2°F28.4°C 69.6°F20.9°C 63% 1.1 mph SE1.8 kmh SE 3.0 mph4.8 kmh 29.97 in1014.9 mb 0.00 in0.0 mm 0.00 in0.0 mm 0.00 in0.0 mm
08:11 PM 83.2°F28.4°C 69.1°F20.6°C 62% 1.9 mph ESE3.1 kmh ESE 3.0 mph4.8 kmh 29.97 in1014.9 mb 0.00 in0.0 mm 0.00 in0.0 mm 0.00 in0.0 mm
08:16 PM 83.0°F28.3°C 68.6°F20.3°C 62% 1.2 mph SE1.9 kmh SE 3.0 mph4.8 kmh 29.98 in1015.2 mb 0.00 in0.0 mm 0.00 in0.0 mm 0.00 in0.0 mm
08:21 PM 83.0°F28.3°C 69.4°F20.8°C 63% 1.2 mph SE1.9 kmh SE 3.0 mph4.8 kmh 29.97 in1014.9 mb 0.00 in0.0 mm 0.00 in0.0 mm 0.00 in0.0 mm
08:26 PM 82.8°F28.2°C 69.2°F20.7°C 63% 1.0 mph SE1.6 kmh SE 3.0 mph4.8 kmh 29.97 in1014.9 mb 0.00 in0.0 mm 0.00 in0.0 mm 0.00 in0.0 mm
08:31 PM 82.6°F28.1°C 69.2°F20.7°C 64% Calm Calm 3.0 mph4.8 kmh 29.98 in1015.2 mb 0.00 in0.0 mm 0.00 in0.0 mm 0.00 in0.0 mm
08:36 PM 82.5°F28.1°C 69.4°F20.8°C 64% 1.0 mph SE1.6 kmh SE 3.0 mph4.8 kmh 29.98 in1015.2 mb 0.00 in0.0 mm 0.00 in0.0 mm 0.00 in0.0 mm
08:41 PM 82.3°F27.9°C 69.2°F20.7°C 64% Calm Calm 1.0 mph1.6 kmh 29.98 in1015.2 mb 0.00 in0.0 mm 0.00 in0.0 mm 0.00 in0.0 mm
08:46 PM 82.1°F27.8°C 69.0°F20.6°C 64% Calm Calm 1.0 mph1.6 kmh 29.98 in1015.2 mb 0.00 in0.0 mm 0.00 in0.0 mm 0.00 in0.0 mm
08:51 PM 82.0°F27.8°C 68.9°F20.5°C 64% Calm Calm 1.0 mph1.6 kmh 29.99 in1015.6 mb 0.00 in0.0 mm 0.00 in0.0 mm 0.00 in0.0 mm
08:56 PM 81.8°F27.7°C 68.4°F20.2°C 64% Calm Calm -- 29.99 in1015.6 mb 0.00 in0.0 mm 0.00 in0.0 mm 0.00 in0.0 mm
09:01 PM 81.7°F27.6°C 69.0°F20.6°C 65% Calm Calm -- 29.99 in1015.6 mb 0.00 in0.0 mm 0.00 in0.0 mm 0.00 in0.0 mm
09:06 PM 81.4°F27.4°C 68.8°F20.4°C 65% Calm Calm -- 29.99 in1015.6 mb 0.00 in0.0 mm 0.00 in0.0 mm 0.00 in0.0 mm
09:11 PM 81.3°F27.4°C 69.1°F20.6°C 66% Calm Calm 1.0 mph1.6 kmh 29.99 in1015.6 mb 0.00 in0.0 mm 0.00 in0.0 mm 0.00 in0.0 mm
09:16 PM 81.4°F27.4°C 69.2°F20.7°C 66% Calm Calm 1.0 mph1.6 kmh 29.99 in1015.6 mb 0.00 in0.0 mm 0.00 in0.0 mm 0.00 in0.0 mm
09:21 PM 81.4°F27.4°C 68.9°F20.5°C 66% Calm Calm 1.0 mph1.6 kmh 29.99 in1015.6 mb 0.00 in0.0 mm 0.00 in0.0 mm 0.00 in0.0 mm
09:26 PM 81.4°F27.4°C 69.6°F20.9°C 67% Calm Calm 1.0 mph1.6 kmh 29.99 in1015.6 mb 0.00 in0.0 mm 0.00 in0.0 mm 0.00 in0.0 mm
09:31 PM 81.3°F27.4°C 69.5°F20.8°C 67% Calm Calm 1.0 mph1.6 kmh 29.99 in1015.6 mb 0.00 in0.0 mm 0.00 in0.0 mm 0.00 in0.0 mm
09:36 PM 81.1°F27.3°C 69.3°F20.7°C 67% Calm Calm 1.0 mph1.6 kmh 30.00 in1015.9 mb 0.00 in0.0 mm 0.00 in0.0 mm 0.00 in0.0 mm
09:40 PM 81.0°F27.2°C 69.3°F20.7°C 67% Calm Calm 1.0 mph1.6 kmh 30.00 in1015.9 mb 0.00 in0.0 mm 0.00 in0.0 mm 0.00 in0.0 mm
09:45 PM 81.0°F27.2°C 68.8°F20.4°C 66% 1.0 mph SE1.6 kmh SE 1.0 mph1.6 kmh 30.00 in1015.9 mb 0.00 in0.0 mm 0.00 in0.0 mm 0.00 in0.0 mm
09:50 PM 81.0°F27.2°C 68.6°F20.3°C 66% Calm Calm 1.0 mph1.6 kmh 30.00 in1015.9 mb 0.00 in0.0 mm 0.00 in0.0 mm 0.00 in0.0 mm
09:55 PM 81.0°F27.2°C 69.3°F20.7°C 67% 1.0 mph SE1.6 kmh SE 1.0 mph1.6 kmh 30.00 in1015.9 mb 0.00 in0.0 mm 0.00 in0.0 mm 0.00 in0.0 mm
10:00 PM 81.0°F27.2°C 69.7°F20.9°C 68% Calm Calm 1.0 mph1.6 kmh 30.00 in1015.9 mb 0.00 in0.0 mm 0.00 in0.0 mm 0.00 in0.0 mm
10:05 PM 80.8°F27.1°C 69.5°F20.8°C 68% Calm Calm 1.0 mph1.6 kmh 30.00 in1015.9 mb 0.00 in0.0 mm 0.00 in0.0 mm 0.00 in0.0 mm
10:10 PM 80.7°F27.1°C 69.4°F20.8°C 68% Calm Calm 1.0 mph1.6 kmh 30.00 in1015.9 mb 0.00 in0.0 mm 0.00 in0.0 mm 0.00 in0.0 mm
10:15 PM 80.6°F27.0°C 69.1°F20.6°C 68% Calm Calm 1.0 mph1.6 kmh 30.00 in1015.9 mb 0.00 in0.0 mm 0.00 in0.0 mm 0.00 in0.0 mm
10:20 PM 80.5°F26.9°C 69.0°F20.6°C 68% 1.6 mph SE2.6 kmh SE 2.0 mph3.2 kmh 30.00 in1015.9 mb 0.00 in0.0 mm 0.00 in0.0 mm 0.00 in0.0 mm
10:25 PM 80.4°F26.9°C 69.1°F20.6°C 68% Calm Calm 2.0 mph3.2 kmh 30.00 in1015.9 mb 0.00 in0.0 mm 0.00 in0.0 mm 0.00 in0.0 mm
10:30 PM 80.1°F26.7°C 69.2°F20.7°C 69% 1.0 mph SSE1.6 kmh SSE 2.0 mph3.2 kmh 30.00 in1015.9 mb 0.00 in0.0 mm 0.00 in0.0 mm 0.00 in0.0 mm
10:35 PM 79.8°F26.6°C 69.1°F20.6°C 70% Calm Calm 2.0 mph3.2 kmh 30.00 in1015.9 mb 0.00 in0.0 mm 0.00 in0.0 mm 0.00 in0.0 mm
10:40 PM 79.7°F26.5°C 69.3°F20.7°C 70% 1.0 mph SSE1.6 kmh SSE 2.0 mph3.2 kmh 30.00 in1015.9 mb 0.00 in0.0 mm 0.00 in0.0 mm 0.00 in0.0 mm
10:45 PM 79.6°F26.4°C 69.2°F20.7°C 70% 1.0 mph SW1.6 kmh SW 2.0 mph3.2 kmh 30.00 in1015.9 mb 0.00 in0.0 mm 0.00 in0.0 mm 0.00 in0.0 mm
10:50 PM 79.5°F26.4°C 69.1°F20.6°C 70% Calm Calm 2.0 mph3.2 kmh 30.00 in1015.9 mb 0.00 in0.0 mm 0.00 in0.0 mm 0.00 in0.0 mm
10:55 PM 79.6°F26.4°C 69.2°F20.7°C 70% Calm Calm 2.0 mph3.2 kmh 30.01 in1016.3 mb 0.00 in0.0 mm 0.00 in0.0 mm 0.00 in0.0 mm
11:00 PM 79.6°F26.4°C 69.2°F20.7°C 70% 1.0 mph SE1.6 kmh SE 2.0 mph3.2 kmh 30.01 in1016.3 mb 0.00 in0.0 mm 0.00 in0.0 mm 0.00 in0.0 mm
11:05 PM 79.5°F26.4°C 69.3°F20.7°C 71% Calm Calm 2.0 mph3.2 kmh 30.01 in1016.3 mb 0.00 in0.0 mm 0.00 in0.0 mm 0.00 in0.0 mm
11:10 PM 79.2°F26.2°C 69.2°F20.7°C 71% Calm Calm 1.0 mph1.6 kmh 30.01 in1016.3 mb 0.00 in0.0 mm 0.00 in0.0 mm 0.00 in0.0 mm
11:15 PM 79.0°F26.1°C 69.0°F20.6°C 71% Calm Calm 1.0 mph1.6 kmh 30.01 in1016.3 mb 0.00 in0.0 mm 0.00 in0.0 mm 0.00 in0.0 mm
11:20 PM 79.0°F26.1°C 68.8°F20.4°C 71% Calm Calm 1.0 mph1.6 kmh 30.01 in1016.3 mb 0.00 in0.0 mm 0.00 in0.0 mm 0.00 in0.0 mm
11:25 PM 78.9°F26.1°C 68.9°F20.5°C 71% Calm Calm 1.0 mph1.6 kmh 30.01 in1016.3 mb 0.00 in0.0 mm 0.00 in0.0 mm 0.00 in0.0 mm
11:30 PM 78.6°F25.9°C 69.0°F20.6°C 72% Calm Calm 1.0 mph1.6 kmh 30.01 in1016.3 mb 0.00 in0.0 mm 0.00 in0.0 mm 0.00 in0.0 mm
11:35 PM 78.3°F25.7°C 68.5°F20.3°C 72% Calm Calm 1.0 mph1.6 kmh 30.01 in1016.3 mb 0.00 in0.0 mm 0.00 in0.0 mm 0.00 in0.0 mm
11:40 PM 78.1°F25.6°C 68.9°F20.5°C 73% 1.0 mph ESE1.6 kmh ESE 1.0 mph1.6 kmh 30.01 in1016.3 mb 0.00 in0.0 mm 0.00 in0.0 mm 0.00 in0.0 mm
11:45 PM 77.9°F25.5°C 69.1°F20.6°C 74% Calm Calm 1.0 mph1.6 kmh 30.01 in1016.3 mb 0.00 in0.0 mm 0.00 in0.0 mm 0.00 in0.0 mm
11:50 PM 77.7°F25.4°C 69.3°F20.7°C 75% 1.0 mph SE1.6 kmh SE 1.0 mph1.6 kmh 30.01 in1016.3 mb 0.00 in0.0 mm 0.00 in0.0 mm 0.00 in0.0 mm
11:55 PM 77.7°F25.4°C 69.1°F20.6°C 75% 1.0 mph SE1.6 kmh SE 2.0 mph3.2 kmh 30.01 in1016.3 mb 0.00 in0.0 mm 0.00 in0.0 mm 0.00 in0.0 mm